sensor_id;sensor_type;location;lat;lon;timestamp;temperature;humidity
12819;DHT22;6474;53.474;9.894;2023-05-27T00:01:17;10.20;63.80
12819;DHT22;6474;53.474;9.894;2023-05-27T00:03:46;10.20;63.90
12819;DHT22;6474;53.474;9.894;2023-05-27T00:06:14;10.20;63.90
12819;DHT22;6474;53.474;9.894;2023-05-27T00:08:42;10.20;64.00
12819;DHT22;6474;53.474;9.894;2023-05-27T00:11:09;10.20;64.00
12819;DHT22;6474;53.474;9.894;2023-05-27T00:13:37;10.10;63.90
12819;DHT22;6474;53.474;9.894;2023-05-27T00:16:06;10.10;64.00
12819;DHT22;6474;53.474;9.894;2023-05-27T00:18:35;10.10;64.00
12819;DHT22;6474;53.474;9.894;2023-05-27T00:21:04;10.10;64.00
12819;DHT22;6474;53.474;9.894;2023-05-27T00:23:32;10.10;64.00
12819;DHT22;6474;53.474;9.894;2023-05-27T00:25:59;10.00;63.80
12819;DHT22;6474;53.474;9.894;2023-05-27T00:28:27;10.00;63.80
12819;DHT22;6474;53.474;9.894;2023-05-27T00:30:57;10.00;63.80
12819;DHT22;6474;53.474;9.894;2023-05-27T00:33:25;10.00;63.90
12819;DHT22;6474;53.474;9.894;2023-05-27T00:35:54;9.90;65.00
12819;DHT22;6474;53.474;9.894;2023-05-27T00:38:23;9.90;65.20
12819;DHT22;6474;53.474;9.894;2023-05-27T00:40:52;9.90;65.30
12819;DHT22;6474;53.474;9.894;2023-05-27T00:43:20;9.80;65.20
12819;DHT22;6474;53.474;9.894;2023-05-27T00:45:48;9.70;65.20
12819;DHT22;6474;53.474;9.894;2023-05-27T00:48:17;9.70;65.40
12819;DHT22;6474;53.474;9.894;2023-05-27T00:50:45;9.70;65.50
12819;DHT22;6474;53.474;9.894;2023-05-27T00:53:15;9.70;65.40
12819;DHT22;6474;53.474;9.894;2023-05-27T00:55:43;9.60;65.40
12819;DHT22;6474;53.474;9.894;2023-05-27T00:58:11;9.60;65.30
12819;DHT22;6474;53.474;9.894;2023-05-27T01:00:39;9.60;65.30
12819;DHT22;6474;53.474;9.894;2023-05-27T01:03:07;9.60;65.30
12819;DHT22;6474;53.474;9.894;2023-05-27T01:05:35;9.50;65.30
12819;DHT22;6474;53.474;9.894;2023-05-27T01:08:09;9.50;66.10
12819;DHT22;6474;53.474;9.894;2023-05-27T01:10:45;9.50;65.40
12819;DHT22;6474;53.474;9.894;2023-05-27T01:13:18;9.50;65.40
12819;DHT22;6474;53.474;9.894;2023-05-27T01:15:50;9.40;65.30
12819;DHT22;6474;53.474;9.894;2023-05-27T01:18:20;9.40;65.30
12819;DHT22;6474;53.474;9.894;2023-05-27T01:20:51;9.40;65.30
12819;DHT22;6474;53.474;9.894;2023-05-27T01:23:20;9.40;65.30
12819;DHT22;6474;53.474;9.894;2023-05-27T01:25:48;9.40;65.30
12819;DHT22;6474;53.474;9.894;2023-05-27T01:28:17;9.30;65.20
12819;DHT22;6474;53.474;9.894;2023-05-27T01:30:45;9.30;65.30
12819;DHT22;6474;53.474;9.894;2023-05-27T01:33:15;9.20;65.30
12819;DHT22;6474;53.474;9.894;2023-05-27T01:35:48;9.20;65.50
12819;DHT22;6474;53.474;9.894;2023-05-27T01:38:21;9.10;66.10
12819;DHT22;6474;53.474;9.894;2023-05-27T01:40:53;9.10;65.50
12819;DHT22;6474;53.474;9.894;2023-05-27T01:43:22;9.10;65.50
12819;DHT22;6474;53.474;9.894;2023-05-27T01:45:51;9.10;65.50
12819;DHT22;6474;53.474;9.894;2023-05-27T01:48:19;9.10;65.50
12819;DHT22;6474;53.474;9.894;2023-05-27T01:50:47;9.10;65.50
12819;DHT22;6474;53.474;9.894;2023-05-27T01:53:15;9.10;65.50
12819;DHT22;6474;53.474;9.894;2023-05-27T01:55:44;9.00;65.50
12819;DHT22;6474;53.474;9.894;2023-05-27T01:58:12;9.00;65.50
12819;DHT22;6474;53.474;9.894;2023-05-27T02:00:40;9.00;65.50
12819;DHT22;6474;53.474;9.894;2023-05-27T02:03:08;8.90;65.40
12819;DHT22;6474;53.474;9.894;2023-05-27T02:05:36;9.00;65.50
12819;DHT22;6474;53.474;9.894;2023-05-27T02:08:04;8.90;65.30
12819;DHT22;6474;53.474;9.894;2023-05-27T02:10:32;8.90;65.40
12819;DHT22;6474;53.474;9.894;2023-05-27T02:13:01;8.90;65.30
12819;DHT22;6474;53.474;9.894;2023-05-27T02:15:29;8.90;65.30
12819;DHT22;6474;53.474;9.894;2023-05-27T02:17:57;8.90;65.40
12819;DHT22;6474;53.474;9.894;2023-05-27T02:20:25;8.90;66.10
12819;DHT22;6474;53.474;9.894;2023-05-27T02:22:53;8.90;65.40
12819;DHT22;6474;53.474;9.894;2023-05-27T02:25:21;8.80;65.30
12819;DHT22;6474;53.474;9.894;2023-05-27T02:27:49;8.70;65.30
12819;DHT22;6474;53.474;9.894;2023-05-27T02:30:20;8.80;65.40
12819;DHT22;6474;53.474;9.894;2023-05-27T02:32:48;8.70;65.40
12819;DHT22;6474;53.474;9.894;2023-05-27T02:35:16;8.70;65.40
12819;DHT22;6474;53.474;9.894;2023-05-27T02:37:43;8.70;65.40
12819;DHT22;6474;53.474;9.894;2023-05-27T02:40:11;8.70;65.40
12819;DHT22;6474;53.474;9.894;2023-05-27T02:42:39;8.60;65.30
12819;DHT22;6474;53.474;9.894;2023-05-27T02:45:08;8.70;65.40
12819;DHT22;6474;53.474;9.894;2023-05-27T02:47:37;8.60;65.30
12819;DHT22;6474;53.474;9.894;2023-05-27T02:50:06;8.60;65.30
12819;DHT22;6474;53.474;9.894;2023-05-27T02:52:34;8.60;65.40
12819;DHT22;6474;53.474;9.894;2023-05-27T02:55:02;8.50;65.30
12819;DHT22;6474;53.474;9.894;2023-05-27T02:57:30;8.50;65.30
12819;DHT22;6474;53.474;9.894;2023-05-27T02:59:58;8.50;65.30
12819;DHT22;6474;53.474;9.894;2023-05-27T03:02:26;8.50;65.30
12819;DHT22;6474;53.474;9.894;2023-05-27T03:04:55;8.50;65.30
12819;DHT22;6474;53.474;9.894;2023-05-27T03:07:23;8.50;65.30
12819;DHT22;6474;53.474;9.894;2023-05-27T03:09:51;8.50;65.30
12819;DHT22;6474;53.474;9.894;2023-05-27T03:12:19;8.40;65.30
12819;DHT22;6474;53.474;9.894;2023-05-27T03:14:47;8.40;65.40
12819;DHT22;6474;53.474;9.894;2023-05-27T03:17:14;8.40;65.40
12819;DHT22;6474;53.474;9.894;2023-05-27T03:19:42;8.40;65.50
12819;DHT22;6474;53.474;9.894;2023-05-27T03:22:12;8.40;66.20
12819;DHT22;6474;53.474;9.894;2023-05-27T03:24:40;8.40;65.40
12819;DHT22;6474;53.474;9.894;2023-05-27T03:27:08;8.40;65.40
12819;DHT22;6474;53.474;9.894;2023-05-27T03:29:35;8.40;65.50
12819;DHT22;6474;53.474;9.894;2023-05-27T03:32:04;8.40;65.40
12819;DHT22;6474;53.474;9.894;2023-05-27T03:34:32;8.40;65.40
12819;DHT22;6474;53.474;9.894;2023-05-27T03:37:00;8.40;65.40
12819;DHT22;6474;53.474;9.894;2023-05-27T03:39:29;8.40;65.40
12819;DHT22;6474;53.474;9.894;2023-05-27T03:41:57;8.40;65.40
12819;DHT22;6474;53.474;9.894;2023-05-27T03:44:25;8.50;65.50
12819;DHT22;6474;53.474;9.894;2023-05-27T03:46:53;8.50;65.50
12819;DHT22;6474;53.474;9.894;2023-05-27T03:49:21;8.50;65.40
12819;DHT22;6474;53.474;9.894;2023-05-27T03:51:49;8.50;65.40
12819;DHT22;6474;53.474;9.894;2023-05-27T03:54:17;8.50;65.30
12819;DHT22;6474;53.474;9.894;2023-05-27T03:56:46;8.60;65.40
12819;DHT22;6474;53.474;9.894;2023-05-27T03:59:14;8.60;65.50
12819;DHT22;6474;53.474;9.894;2023-05-27T04:01:43;8.70;65.50
12819;DHT22;6474;53.474;9.894;2023-05-27T04:04:11;8.70;65.40
12819;DHT22;6474;53.474;9.894;2023-05-27T04:06:39;8.80;65.40
12819;DHT22;6474;53.474;9.894;2023-05-27T04:09:08;8.80;65.40
12819;DHT22;6474;53.474;9.894;2023-05-27T04:11:36;8.80;65.30
12819;DHT22;6474;53.474;9.894;2023-05-27T04:14:05;8.90;65.30
12819;DHT22;6474;53.474;9.894;2023-05-27T04:16:34;8.90;65.30
12819;DHT22;6474;53.474;9.894;2023-05-27T04:19:02;8.90;65.20
12819;DHT22;6474;53.474;9.894;2023-05-27T04:21:30;9.00;65.30
12819;DHT22;6474;53.474;9.894;2023-05-27T04:23:58;9.00;65.20
12819;DHT22;6474;53.474;9.894;2023-05-27T04:26:26;9.10;65.20
12819;DHT22;6474;53.474;9.894;2023-05-27T04:28:53;9.10;65.10
12819;DHT22;6474;53.474;9.894;2023-05-27T04:31:23;9.20;65.20
12819;DHT22;6474;53.474;9.894;2023-05-27T04:33:55;9.20;65.20
12819;DHT22;6474;53.474;9.894;2023-05-27T04:36:23;9.40;65.30
12819;DHT22;6474;53.474;9.894;2023-05-27T04:38:53;9.50;65.40
12819;DHT22;6474;53.474;9.894;2023-05-27T04:41:21;9.60;65.30
12819;DHT22;6474;53.474;9.894;2023-05-27T04:43:55;9.70;65.10
12819;DHT22;6474;53.474;9.894;2023-05-27T04:46:25;9.80;65.00
12819;DHT22;6474;53.474;9.894;2023-05-27T04:48:53;9.90;64.90
12819;DHT22;6474;53.474;9.894;2023-05-27T04:51:21;9.90;64.90
12819;DHT22;6474;53.474;9.894;2023-05-27T04:53:49;10.00;63.80
12819;DHT22;6474;53.474;9.894;2023-05-27T04:56:17;10.00;63.70
12819;DHT22;6474;53.474;9.894;2023-05-27T04:58:45;10.10;63.80
12819;DHT22;6474;53.474;9.894;2023-05-27T05:01:15;10.10;63.80
12819;DHT22;6474;53.474;9.894;2023-05-27T05:03:46;10.20;63.90
12819;DHT22;6474;53.474;9.894;2023-05-27T05:06:20;10.20;63.90
12819;DHT22;6474;53.474;9.894;2023-05-27T05:08:48;10.30;64.80
12819;DHT22;6474;53.474;9.894;2023-05-27T05:11:16;10.30;63.90
12819;DHT22;6474;53.474;9.894;2023-05-27T05:13:44;10.30;64.00
12819;DHT22;6474;53.474;9.894;2023-05-27T05:16:12;10.40;64.10
12819;DHT22;6474;53.474;9.894;2023-05-27T05:18:40;10.40;64.10
12819;DHT22;6474;53.474;9.894;2023-05-27T05:21:09;10.50;64.30
12819;DHT22;6474;53.474;9.894;2023-05-27T05:23:37;10.60;64.50
12819;DHT22;6474;53.474;9.894;2023-05-27T05:26:06;10.60;64.40
12819;DHT22;6474;53.474;9.894;2023-05-27T05:28:34;10.70;64.50
12819;DHT22;6474;53.474;9.894;2023-05-27T05:31:02;10.80;64.50
12819;DHT22;6474;53.474;9.894;2023-05-27T05:33:30;10.80;64.60
12819;DHT22;6474;53.474;9.894;2023-05-27T05:35:58;10.90;64.70
12819;DHT22;6474;53.474;9.894;2023-05-27T05:38:27;11.00;64.80
12819;DHT22;6474;53.474;9.894;2023-05-27T05:40:56;11.00;64.50
12819;DHT22;6474;53.474;9.894;2023-05-27T05:43:24;11.10;64.50
12819;DHT22;6474;53.474;9.894;2023-05-27T05:45:52;11.10;64.40
12819;DHT22;6474;53.474;9.894;2023-05-27T05:48:20;11.20;64.40
12819;DHT22;6474;53.474;9.894;2023-05-27T05:50:48;11.20;64.40
12819;DHT22;6474;53.474;9.894;2023-05-27T05:53:17;11.30;64.50
12819;DHT22;6474;53.474;9.894;2023-05-27T05:55:46;11.30;64.50
12819;DHT22;6474;53.474;9.894;2023-05-27T05:58:14;11.40;64.60
12819;DHT22;6474;53.474;9.894;2023-05-27T06:00:42;11.50;64.60
12819;DHT22;6474;53.474;9.894;2023-05-27T06:03:10;11.60;64.60
12819;DHT22;6474;53.474;9.894;2023-05-27T06:05:38;11.70;64.60
12819;DHT22;6474;53.474;9.894;2023-05-27T06:08:06;11.70;64.70
12819;DHT22;6474;53.474;9.894;2023-05-27T06:10:34;11.80;64.70
12819;DHT22;6474;53.474;9.894;2023-05-27T06:13:04;12.00;65.00
12819;DHT22;6474;53.474;9.894;2023-05-27T06:15:32;12.10;65.20
12819;DHT22;6474;53.474;9.894;2023-05-27T06:18:00;12.20;65.30
12819;DHT22;6474;53.474;9.894;2023-05-27T06:20:27;12.30;65.40
12819;DHT22;6474;53.474;9.894;2023-05-27T06:22:56;12.40;65.60
12819;DHT22;6474;53.474;9.894;2023-05-27T06:25:23;12.40;65.60
12819;DHT22;6474;53.474;9.894;2023-05-27T06:27:51;12.50;65.60
12819;DHT22;6474;53.474;9.894;2023-05-27T06:30:20;12.50;65.40
12819;DHT22;6474;53.474;9.894;2023-05-27T06:32:48;12.50;65.40
12819;DHT22;6474;53.474;9.894;2023-05-27T06:35:16;12.60;65.30
12819;DHT22;6474;53.474;9.894;2023-05-27T06:37:44;12.60;65.30
12819;DHT22;6474;53.474;9.894;2023-05-27T06:40:14;12.70;65.20
12819;DHT22;6474;53.474;9.894;2023-05-27T06:42:43;12.70;65.00
12819;DHT22;6474;53.474;9.894;2023-05-27T06:45:11;12.70;65.00
12819;DHT22;6474;53.474;9.894;2023-05-27T06:47:40;12.80;65.00
12819;DHT22;6474;53.474;9.894;2023-05-27T06:50:09;12.80;64.90
12819;DHT22;6474;53.474;9.894;2023-05-27T06:52:37;12.90;64.90
12819;DHT22;6474;53.474;9.894;2023-05-27T06:55:06;12.90;64.80
12819;DHT22;6474;53.474;9.894;2023-05-27T06:57:34;12.90;64.80
12819;DHT22;6474;53.474;9.894;2023-05-27T07:00:02;13.00;64.80
12819;DHT22;6474;53.474;9.894;2023-05-27T07:02:31;13.10;64.80
12819;DHT22;6474;53.474;9.894;2023-05-27T07:05:01;13.20;64.60
12819;DHT22;6474;53.474;9.894;2023-05-27T07:07:29;13.20;64.60
12819;DHT22;6474;53.474;9.894;2023-05-27T07:09:56;13.30;64.70
12819;DHT22;6474;53.474;9.894;2023-05-27T07:12:25;13.30;64.70
12819;DHT22;6474;53.474;9.894;2023-05-27T07:14:56;13.30;64.70
12819;DHT22;6474;53.474;9.894;2023-05-27T07:17:23;13.40;64.80
12819;DHT22;6474;53.474;9.894;2023-05-27T07:19:51;13.40;64.80
12819;DHT22;6474;53.474;9.894;2023-05-27T07:22:20;13.50;64.90
12819;DHT22;6474;53.474;9.894;2023-05-27T07:24:48;13.60;65.00
12819;DHT22;6474;53.474;9.894;2023-05-27T07:27:16;13.60;65.00
12819;DHT22;6474;53.474;9.894;2023-05-27T07:29:44;13.70;65.10
12819;DHT22;6474;53.474;9.894;2023-05-27T07:32:12;13.80;65.20
12819;DHT22;6474;53.474;9.894;2023-05-27T07:34:40;13.90;65.20
12819;DHT22;6474;53.474;9.894;2023-05-27T07:37:08;14.00;65.10
12819;DHT22;6474;53.474;9.894;2023-05-27T07:39:37;14.10;65.10
12819;DHT22;6474;53.474;9.894;2023-05-27T07:42:05;14.10;65.00
12819;DHT22;6474;53.474;9.894;2023-05-27T07:44:33;14.20;65.10
12819;DHT22;6474;53.474;9.894;2023-05-27T07:47:00;14.30;65.10
12819;DHT22;6474;53.474;9.894;2023-05-27T07:49:28;14.40;65.10
12819;DHT22;6474;53.474;9.894;2023-05-27T07:51:56;14.40;65.00
12819;DHT22;6474;53.474;9.894;2023-05-27T07:54:24;14.50;65.10
12819;DHT22;6474;53.474;9.894;2023-05-27T07:56:54;14.50;65.10
12819;DHT22;6474;53.474;9.894;2023-05-27T07:59:24;14.60;65.10
12819;DHT22;6474;53.474;9.894;2023-05-27T08:01:52;14.60;65.00
12819;DHT22;6474;53.474;9.894;2023-05-27T08:04:20;14.70;65.10
12819;DHT22;6474;53.474;9.894;2023-05-27T08:06:51;14.80;65.10
12819;DHT22;6474;53.474;9.894;2023-05-27T08:09:19;14.90;65.10
12819;DHT22;6474;53.474;9.894;2023-05-27T08:11:47;15.00;65.20
12819;DHT22;6474;53.474;9.894;2023-05-27T08:14:17;15.10;65.30
12819;DHT22;6474;53.474;9.894;2023-05-27T08:16:47;15.20;65.30
12819;DHT22;6474;53.474;9.894;2023-05-27T08:19:15;15.30;65.30
12819;DHT22;6474;53.474;9.894;2023-05-27T08:21:42;15.30;65.30
12819;DHT22;6474;53.474;9.894;2023-05-27T08:24:10;15.40;65.30
12819;DHT22;6474;53.474;9.894;2023-05-27T08:26:39;15.50;65.30
12819;DHT22;6474;53.474;9.894;2023-05-27T08:29:06;15.60;65.30
12819;DHT22;6474;53.474;9.894;2023-05-27T08:31:36;15.60;65.20
12819;DHT22;6474;53.474;9.894;2023-05-27T08:34:04;15.70;65.30
12819;DHT22;6474;53.474;9.894;2023-05-27T08:36:32;15.70;65.30
12819;DHT22;6474;53.474;9.894;2023-05-27T08:39:00;15.70;65.30
12819;DHT22;6474;53.474;9.894;2023-05-27T08:41:30;15.80;65.30
12819;DHT22;6474;53.474;9.894;2023-05-27T08:43:59;15.80;65.30
12819;DHT22;6474;53.474;9.894;2023-05-27T08:46:48;15.80;65.30
12819;DHT22;6474;53.474;9.894;2023-05-27T08:49:16;15.90;65.40
12819;DHT22;6474;53.474;9.894;2023-05-27T08:51:45;15.80;65.50
12819;DHT22;6474;53.474;9.894;2023-05-27T08:54:13;15.80;65.60
12819;DHT22;6474;53.474;9.894;2023-05-27T08:56:43;15.70;65.80
12819;DHT22;6474;53.474;9.894;2023-05-27T08:59:12;15.70;65.80
12819;DHT22;6474;53.474;9.894;2023-05-27T09:01:40;15.60;65.80
12819;DHT22;6474;53.474;9.894;2023-05-27T09:04:10;15.60;65.80
12819;DHT22;6474;53.474;9.894;2023-05-27T09:06:38;15.50;65.80
12819;DHT22;6474;53.474;9.894;2023-05-27T09:09:06;15.50;65.90
12819;DHT22;6474;53.474;9.894;2023-05-27T09:11:38;15.50;65.90
12819;DHT22;6474;53.474;9.894;2023-05-27T09:14:07;15.60;65.90
12819;DHT22;6474;53.474;9.894;2023-05-27T09:16:41;15.80;65.90
12819;DHT22;6474;53.474;9.894;2023-05-27T09:19:16;16.00;65.80
12819;DHT22;6474;53.474;9.894;2023-05-27T09:21:44;16.20;65.70
12819;DHT22;6474;53.474;9.894;2023-05-27T09:24:12;16.30;65.40
12819;DHT22;6474;53.474;9.894;2023-05-27T09:26:40;16.50;65.50
12819;DHT22;6474;53.474;9.894;2023-05-27T09:29:08;16.70;65.30
12819;DHT22;6474;53.474;9.894;2023-05-27T09:31:38;16.80;65.10
12819;DHT22;6474;53.474;9.894;2023-05-27T09:34:11;17.00;65.10
12819;DHT22;6474;53.474;9.894;2023-05-27T09:36:44;17.10;65.20
12819;DHT22;6474;53.474;9.894;2023-05-27T09:39:13;17.20;65.10
12819;DHT22;6474;53.474;9.894;2023-05-27T09:41:41;17.30;65.00
12819;DHT22;6474;53.474;9.894;2023-05-27T09:44:09;17.40;64.90
12819;DHT22;6474;53.474;9.894;2023-05-27T09:46:38;17.50;64.90
12819;DHT22;6474;53.474;9.894;2023-05-27T09:49:07;17.60;64.80
12819;DHT22;6474;53.474;9.894;2023-05-27T09:51:37;17.60;64.80
12819;DHT22;6474;53.474;9.894;2023-05-27T09:54:07;17.60;64.80
12819;DHT22;6474;53.474;9.894;2023-05-27T09:56:36;17.50;64.80
12819;DHT22;6474;53.474;9.894;2023-05-27T09:59:04;17.30;65.00
12819;DHT22;6474;53.474;9.894;2023-05-27T10:01:34;17.20;65.30
12819;DHT22;6474;53.474;9.894;2023-05-27T10:04:03;17.10;65.20
12819;DHT22;6474;53.474;9.894;2023-05-27T10:06:33;17.20;65.30
12819;DHT22;6474;53.474;9.894;2023-05-27T10:09:01;17.20;65.30
12819;DHT22;6474;53.474;9.894;2023-05-27T10:11:32;17.10;65.20
12819;DHT22;6474;53.474;9.894;2023-05-27T10:14:02;17.30;65.40
12819;DHT22;6474;53.474;9.894;2023-05-27T10:16:31;17.40;65.50
12819;DHT22;6474;53.474;9.894;2023-05-27T10:18:59;17.60;65.30
12819;DHT22;6474;53.474;9.894;2023-05-27T10:21:28;17.70;65.00
12819;DHT22;6474;53.474;9.894;2023-05-27T10:24:02;17.80;65.00
12819;DHT22;6474;53.474;9.894;2023-05-27T10:26:36;18.00;65.00
12819;DHT22;6474;53.474;9.894;2023-05-27T10:29:05;18.00;65.50
12819;DHT22;6474;53.474;9.894;2023-05-27T10:31:34;18.20;64.90
12819;DHT22;6474;53.474;9.894;2023-05-27T10:34:04;18.30;64.80
12819;DHT22;6474;53.474;9.894;2023-05-27T10:36:32;18.40;64.80
12819;DHT22;6474;53.474;9.894;2023-05-27T10:39:03;18.40;64.80
12819;DHT22;6474;53.474;9.894;2023-05-27T10:41:43;18.30;64.70
12819;DHT22;6474;53.474;9.894;2023-05-27T10:44:11;18.10;64.70
12819;DHT22;6474;53.474;9.894;2023-05-27T10:46:40;18.10;64.90
12819;DHT22;6474;53.474;9.894;2023-05-27T10:49:10;18.20;65.00
12819;DHT22;6474;53.474;9.894;2023-05-27T10:51:39;18.30;65.00
12819;DHT22;6474;53.474;9.894;2023-05-27T10:54:07;18.50;64.90
12819;DHT22;6474;53.474;9.894;2023-05-27T10:56:49;18.60;65.00
12819;DHT22;6474;53.474;9.894;2023-05-27T10:59:20;18.70;64.80
12819;DHT22;6474;53.474;9.894;2023-05-27T11:01:51;18.50;64.60
12819;DHT22;6474;53.474;9.894;2023-05-27T11:04:20;18.40;64.80
12819;DHT22;6474;53.474;9.894;2023-05-27T11:06:58;18.20;64.80
12819;DHT22;6474;53.474;9.894;2023-05-27T11:09:30;18.00;64.90
12819;DHT22;6474;53.474;9.894;2023-05-27T11:12:02;17.90;65.10
12819;DHT22;6474;53.474;9.894;2023-05-27T11:14:30;17.90;65.30
12819;DHT22;6474;53.474;9.894;2023-05-27T11:16:58;18.10;65.50
12819;DHT22;6474;53.474;9.894;2023-05-27T11:19:26;18.20;65.30
12819;DHT22;6474;53.474;9.894;2023-05-27T11:21:54;18.40;65.10
12819;DHT22;6474;53.474;9.894;2023-05-27T11:24:22;18.60;65.00
12819;DHT22;6474;53.474;9.894;2023-05-27T11:26:50;18.80;65.00
12819;DHT22;6474;53.474;9.894;2023-05-27T11:29:19;18.90;64.70
12819;DHT22;6474;53.474;9.894;2023-05-27T11:31:50;19.00;64.50
12819;DHT22;6474;53.474;9.894;2023-05-27T11:34:18;19.10;64.40
12819;DHT22;6474;53.474;9.894;2023-05-27T11:36:48;19.10;64.30
12819;DHT22;6474;53.474;9.894;2023-05-27T11:39:16;19.20;64.20
12819;DHT22;6474;53.474;9.894;2023-05-27T11:41:48;19.30;64.20
12819;DHT22;6474;53.474;9.894;2023-05-27T11:44:20;19.40;64.30
12819;DHT22;6474;53.474;9.894;2023-05-27T11:46:51;19.40;64.10
12819;DHT22;6474;53.474;9.894;2023-05-27T11:49:19;19.40;64.10
12819;DHT22;6474;53.474;9.894;2023-05-27T11:51:49;19.40;64.00
12819;DHT22;6474;53.474;9.894;2023-05-27T11:54:21;19.40;64.00
12819;DHT22;6474;53.474;9.894;2023-05-27T11:56:51;19.40;64.00
12819;DHT22;6474;53.474;9.894;2023-05-27T11:59:21;19.40;64.00
12819;DHT22;6474;53.474;9.894;2023-05-27T12:01:49;19.50;64.10
12819;DHT22;6474;53.474;9.894;2023-05-27T12:04:17;19.60;64.10
12819;DHT22;6474;53.474;9.894;2023-05-27T12:06:46;19.60;64.00
12819;DHT22;6474;53.474;9.894;2023-05-27T12:09:14;19.70;64.00
12819;DHT22;6474;53.474;9.894;2023-05-27T12:11:43;19.70;63.90
12819;DHT22;6474;53.474;9.894;2023-05-27T12:14:10;19.80;63.90
12819;DHT22;6474;53.474;9.894;2023-05-27T12:16:40;19.80;63.90
12819;DHT22;6474;53.474;9.894;2023-05-27T12:19:07;19.80;63.80
12819;DHT22;6474;53.474;9.894;2023-05-27T12:21:36;19.80;63.80
12819;DHT22;6474;53.474;9.894;2023-05-27T12:24:06;19.80;63.70
12819;DHT22;6474;53.474;9.894;2023-05-27T12:26:33;19.80;63.70
12819;DHT22;6474;53.474;9.894;2023-05-27T12:29:03;19.90;63.80
12819;DHT22;6474;53.474;9.894;2023-05-27T12:31:31;19.90;63.70
12819;DHT22;6474;53.474;9.894;2023-05-27T12:34:01;20.00;63.70
12819;DHT22;6474;53.474;9.894;2023-05-27T12:36:28;20.00;63.70
12819;DHT22;6474;53.474;9.894;2023-05-27T12:38:56;20.10;63.70
12819;DHT22;6474;53.474;9.894;2023-05-27T12:41:24;20.10;63.40
12819;DHT22;6474;53.474;9.894;2023-05-27T12:43:52;20.20;63.70
12819;DHT22;6474;53.474;9.894;2023-05-27T12:46:20;20.20;63.40
12819;DHT22;6474;53.474;9.894;2023-05-27T12:48:48;20.20;63.40
12819;DHT22;6474;53.474;9.894;2023-05-27T12:51:17;20.20;63.40
12819;DHT22;6474;53.474;9.894;2023-05-27T12:53:45;20.30;63.50
12819;DHT22;6474;53.474;9.894;2023-05-27T12:56:13;20.30;63.40
12819;DHT22;6474;53.474;9.894;2023-05-27T12:58:40;20.30;63.40
12819;DHT22;6474;53.474;9.894;2023-05-27T13:01:08;20.40;63.60
12819;DHT22;6474;53.474;9.894;2023-05-27T13:03:36;20.30;63.40
12819;DHT22;6474;53.474;9.894;2023-05-27T13:06:04;20.40;63.60
12819;DHT22;6474;53.474;9.894;2023-05-27T13:08:34;20.40;63.50
12819;DHT22;6474;53.474;9.894;2023-05-27T13:11:02;20.50;64.30
12819;DHT22;6474;53.474;9.894;2023-05-27T13:13:30;20.50;63.30
12819;DHT22;6474;53.474;9.894;2023-05-27T13:15:58;20.60;63.40
12819;DHT22;6474;53.474;9.894;2023-05-27T13:18:25;20.60;63.30
12819;DHT22;6474;53.474;9.894;2023-05-27T13:20:53;20.70;63.30
12819;DHT22;6474;53.474;9.894;2023-05-27T13:23:21;20.70;63.10
12819;DHT22;6474;53.474;9.894;2023-05-27T13:25:50;20.80;63.20
12819;DHT22;6474;53.474;9.894;2023-05-27T13:28:19;20.80;63.00
12819;DHT22;6474;53.474;9.894;2023-05-27T13:30:47;20.80;63.00
12819;DHT22;6474;53.474;9.894;2023-05-27T13:33:15;20.80;62.90
12819;DHT22;6474;53.474;9.894;2023-05-27T13:35:43;20.80;62.90
12819;DHT22;6474;53.474;9.894;2023-05-27T13:38:10;20.70;62.80
12819;DHT22;6474;53.474;9.894;2023-05-27T13:40:41;20.80;62.90
12819;DHT22;6474;53.474;9.894;2023-05-27T13:43:10;20.70;62.70
12819;DHT22;6474;53.474;9.894;2023-05-27T13:45:38;20.70;62.70
12819;DHT22;6474;53.474;9.894;2023-05-27T13:48:06;20.70;62.80
12819;DHT22;6474;53.474;9.894;2023-05-27T13:50:35;20.80;62.80
12819;DHT22;6474;53.474;9.894;2023-05-27T13:53:03;20.80;62.40
12819;DHT22;6474;53.474;9.894;2023-05-27T13:55:31;20.80;62.50
12819;DHT22;6474;53.474;9.894;2023-05-27T13:57:58;20.80;62.40
12819;DHT22;6474;53.474;9.894;2023-05-27T14:00:28;20.80;62.40
12819;DHT22;6474;53.474;9.894;2023-05-27T14:02:57;20.90;62.60
12819;DHT22;6474;53.474;9.894;2023-05-27T14:05:26;21.00;62.70
12819;DHT22;6474;53.474;9.894;2023-05-27T14:07:55;21.00;62.30
12819;DHT22;6474;53.474;9.894;2023-05-27T14:10:23;21.10;62.10
12819;DHT22;6474;53.474;9.894;2023-05-27T14:12:51;21.10;62.10
12819;DHT22;6474;53.474;9.894;2023-05-27T14:15:19;21.00;62.10
12819;DHT22;6474;53.474;9.894;2023-05-27T14:17:48;21.00;62.00
12819;DHT22;6474;53.474;9.894;2023-05-27T14:20:16;21.00;62.10
12819;DHT22;6474;53.474;9.894;2023-05-27T14:22:44;21.00;62.10
12819;DHT22;6474;53.474;9.894;2023-05-27T14:25:12;21.00;62.00
12819;DHT22;6474;53.474;9.894;2023-05-27T14:27:40;21.10;62.10
12819;DHT22;6474;53.474;9.894;2023-05-27T14:30:09;21.20;62.20
12819;DHT22;6474;53.474;9.894;2023-05-27T14:32:37;21.20;62.20
12819;DHT22;6474;53.474;9.894;2023-05-27T14:35:07;21.20;62.20
12819;DHT22;6474;53.474;9.894;2023-05-27T14:37:35;21.20;62.20
12819;DHT22;6474;53.474;9.894;2023-05-27T14:40:04;21.20;63.00
12819;DHT22;6474;53.474;9.894;2023-05-27T14:42:32;21.20;62.20
12819;DHT22;6474;53.474;9.894;2023-05-27T14:45:00;21.20;62.20
12819;DHT22;6474;53.474;9.894;2023-05-27T14:47:28;21.20;62.20
12819;DHT22;6474;53.474;9.894;2023-05-27T14:49:56;21.10;62.10
12819;DHT22;6474;53.474;9.894;2023-05-27T14:52:25;21.20;62.20
12819;DHT22;6474;53.474;9.894;2023-05-27T14:54:53;21.10;62.10
12819;DHT22;6474;53.474;9.894;2023-05-27T14:57:21;21.20;62.20
12819;DHT22;6474;53.474;9.894;2023-05-27T14:59:48;21.20;62.20
12819;DHT22;6474;53.474;9.894;2023-05-27T15:02:16;21.10;62.10
12819;DHT22;6474;53.474;9.894;2023-05-27T15:04:44;21.10;62.10
12819;DHT22;6474;53.474;9.894;2023-05-27T15:07:13;21.10;62.10
12819;DHT22;6474;53.474;9.894;2023-05-27T15:09:45;21.10;62.10
12819;DHT22;6474;53.474;9.894;2023-05-27T15:12:13;21.20;62.20
12819;DHT22;6474;53.474;9.894;2023-05-27T15:14:41;21.20;62.20
12819;DHT22;6474;53.474;9.894;2023-05-27T15:17:08;21.20;62.10
12819;DHT22;6474;53.474;9.894;2023-05-27T15:19:37;21.30;62.20
12819;DHT22;6474;53.474;9.894;2023-05-27T15:22:06;21.20;62.00
12819;DHT22;6474;53.474;9.894;2023-05-27T15:24:33;21.30;62.00
12819;DHT22;6474;53.474;9.894;2023-05-27T15:27:03;21.30;61.90
12819;DHT22;6474;53.474;9.894;2023-05-27T15:29:32;21.30;61.90
12819;DHT22;6474;53.474;9.894;2023-05-27T15:32:00;21.30;61.80
12819;DHT22;6474;53.474;9.894;2023-05-27T15:34:28;21.30;61.90
12819;DHT22;6474;53.474;9.894;2023-05-27T15:36:56;21.30;61.90
12819;DHT22;6474;53.474;9.894;2023-05-27T15:39:25;21.40;61.90
12819;DHT22;6474;53.474;9.894;2023-05-27T15:41:53;21.50;61.90
12819;DHT22;6474;53.474;9.894;2023-05-27T15:44:22;21.50;61.80
12819;DHT22;6474;53.474;9.894;2023-05-27T15:46:50;21.50;61.70
12819;DHT22;6474;53.474;9.894;2023-05-27T15:49:18;21.50;61.60
12819;DHT22;6474;53.474;9.894;2023-05-27T15:51:45;21.50;61.70
12819;DHT22;6474;53.474;9.894;2023-05-27T15:54:13;21.40;61.70
12819;DHT22;6474;53.474;9.894;2023-05-27T15:56:41;21.40;61.70
12819;DHT22;6474;53.474;9.894;2023-05-27T15:59:11;21.40;61.80